Aérodrome :
LOGIN :

S'inscrire | Disclaimer

   EN    FR    IT 

 










Légende :    VFR   VFR Marginal   IFR   IFR Intensif   IFR Très Intensif
Visi : 
Plafond : 
>= 8 km
>= 3000ft
5 à 8 km
1000 à 3000 ft
1500m à 5 km
500 à 1000 ft
800 à 1500m
200 à 500 ft
< 800m
< 200 ft
Symboles :   Orages  Brouillard  Fortes neiges  Fortes précipitations  Vent > 20 kt
SIGMETs :   Divers  Orages  Givrage  Turbulence  Onde Orograph.  Cendres Volcan.






- Altitude de l'aérodrome : 751 ft
- Code IATA : ENC


LFSN - Nancy Essey

DERNIER METAR :
  • 220030Z AUTO 20016KT 9999 -RA OVC017 09/07 Q1007

METARs EXPIRÉS :
  • 220000Z AUTO 20015KT 9999 -RA BKN016 OVC021 09/07 Q1007
  • 212330Z AUTO 20013KT 170V230 8000 -RA OVC020 09/07 Q1008
  • 212300Z AUTO 20012KT 170V230 9999 -RA BKN019 OVC025 09/07 Q1008
  • 212230Z AUTO 21012G23KT 170V230 8000 -RA BKN018 BKN027 OVC041 09/07 Q1009
  • 212200Z AUTO 20012KT 8000 RA BKN017 BKN022 OVC041 09/07 Q1009
  • 212130Z AUTO 20013KT 180V240 9999 -RA SCT020 OVC039 09/07 Q1010
  • 212100Z AUTO 20011KT 9999 -RA SCT021 OVC048 08/06 Q1010
  • 212030Z AUTO 20008KT 170V230 9999 -RA SCT029 SCT035 BKN054 08/05 Q1011
  • 212000Z AUTO 20007KT 9999 -RA FEW026 BKN035 BKN045 08/05 Q1011

Prévision TAF périmée.



MET'MAP, la Météo Aéronautique d'un coup d'oeil ! - Copyright ORBIFLY Décembre 2007 - Disclaimer

ORBIFLY MET'MAP TEAM :

Programmation & Développement : Alexandra Zaïnal
Sur une idée originale de : Baudouin d'Aumeries
Soutien technique & logistique : Manuel Goepfert
Assistance : Marc-Olivier Méhu




SOURCES & CREDITS :

   NOAA